createdAt,value
2019-04-26T00:00:11.976Z,57.40
2019-04-26T00:02:52.921Z,57.30
2019-04-26T00:05:33.946Z,57.40
2019-04-26T00:07:54.070Z,57.60
2019-04-26T00:10:55.149Z,57.70
2019-04-26T00:13:32.214Z,58.30
2019-04-26T00:16:25.779Z,58.30
2019-04-26T00:18:55.349Z,58.70
2019-04-26T00:21:24.888Z,59.20
2019-04-26T00:23:54.798Z,59.70
2019-04-26T00:26:24.594Z,60.00
2019-04-26T00:28:54.154Z,60.70
2019-04-26T00:31:23.743Z,61.30
2019-04-26T00:33:53.289Z,62.40
2019-04-26T00:36:22.956Z,62.70
2019-04-26T00:38:52.528Z,62.90
2019-04-26T00:41:23.920Z,63.30
2019-04-26T00:43:53.774Z,63.50
2019-04-26T00:46:25.368Z,64.00
2019-04-26T00:48:56.453Z,64.20
2019-04-26T00:51:26.251Z,64.60
2019-04-26T00:53:57.536Z,65.30
2019-04-26T00:56:27.816Z,65.20
2019-04-26T00:58:57.525Z,65.90
2019-04-26T01:01:28.690Z,66.20
2019-04-26T01:03:58.246Z,66.50
2019-04-26T01:06:30.102Z,67.20
2019-04-26T01:08:59.640Z,67.70
2019-04-26T01:11:29.220Z,68.80
2019-04-26T01:13:58.740Z,69.50
2019-04-26T01:16:29.452Z,70.80
2019-04-26T01:18:59.377Z,70.10
2019-04-26T01:21:33.841Z,70.70
2019-04-26T01:24:04.588Z,70.70
2019-04-26T01:26:34.759Z,70.50
2019-04-26T01:29:07.477Z,70.50
2019-04-26T01:31:45.849Z,71.30
2019-04-26T01:34:15.563Z,71.00
2019-04-26T01:36:46.080Z,71.30
2019-04-26T01:39:21.254Z,71.30
2019-04-26T01:42:10.860Z,71.30
2019-04-26T01:44:56.959Z,71.30
2019-04-26T01:47:26.606Z,71.70
2019-04-26T01:49:56.407Z,72.50
2019-04-26T01:52:26.271Z,73.10
2019-04-26T01:54:56.191Z,73.90
2019-04-26T01:57:29.356Z,74.60
2019-04-26T02:00:06.070Z,75.60
2019-04-26T02:02:45.014Z,76.60
2019-04-26T02:05:19.324Z,75.90
2019-04-26T02:07:49.155Z,76.80
2019-04-26T02:10:20.420Z,76.80
2019-04-26T02:12:50.435Z,76.80
2019-04-26T02:15:24.119Z,77.50
2019-04-26T02:17:57.073Z,77.80
2019-04-26T02:20:53.581Z,77.80
2019-04-26T02:23:32.124Z,78.60
2019-04-26T02:26:20.965Z,79.40
2019-04-26T02:28:50.777Z,80.70
2019-04-26T02:31:20.412Z,80.60
2019-04-26T02:33:51.037Z,81.20
2019-04-26T02:36:21.695Z,81.20
2019-04-26T02:38:53.618Z,82.80
2019-04-26T02:41:23.195Z,83.70
2019-04-26T02:43:56.232Z,82.50
2019-04-26T02:46:38.072Z,82.70
2019-04-26T02:49:16.170Z,83.70
2019-04-26T02:51:55.737Z,84.00
2019-04-26T02:54:46.123Z,84.90
2019-04-26T02:57:36.478Z,84.60
2019-04-26T03:00:10.166Z,85.70
2019-04-26T03:02:40.553Z,85.20
2019-04-26T03:05:10.750Z,87.00
2019-04-26T03:07:50.689Z,85.60
2019-04-26T03:10:25.090Z,88.00
2019-04-26T03:12:57.521Z,87.30
2019-04-26T03:15:42.669Z,87.50
2019-04-26T03:18:33.470Z,86.90
2019-04-26T03:21:09.617Z,87.50
2019-04-26T03:23:57.464Z,89.10
2019-04-26T03:26:38.978Z,87.80
2019-04-26T03:29:35.561Z,89.00
2019-04-26T03:32:18.867Z,89.00
2019-04-26T03:35:09.114Z,87.50
2019-04-26T03:38:17.680Z,87.40
2019-04-26T03:41:00.502Z,87.60
2019-04-26T03:43:53.921Z,86.50
2019-04-26T03:46:41.170Z,87.00
2019-04-26T03:49:26.765Z,87.60
2019-04-26T03:52:09.670Z,86.80
2019-04-26T03:54:42.689Z,87.90
2019-04-26T03:57:26.679Z,86.50
2019-04-26T04:00:45.008Z,87.30
2019-04-26T04:04:05.533Z,87.00
2019-04-26T04:06:52.617Z,88.80
2019-04-26T04:09:09.797Z,88.80
2019-04-26T04:11:49.591Z,86.50
2019-04-26T04:14:56.262Z,87.40
2019-04-26T04:17:45.416Z,87.90
2019-04-26T04:20:27.549Z,88.80
2019-04-26T04:23:07.439Z,88.90
2019-04-26T04:26:30.529Z,89.50
2019-04-26T04:29:46.092Z,88.90
2019-04-26T04:32:18.041Z,90.20
2019-04-26T04:34:52.679Z,90.40
2019-04-26T04:37:26.337Z,91.10
2019-04-26T04:40:34.785Z,90.40
2019-04-26T04:43:21.068Z,89.90
2019-04-26T04:46:12.483Z,90.20
2019-04-26T04:49:23.932Z,89.50
2019-04-26T04:52:42.834Z,90.10
2019-04-26T04:55:21.949Z,89.60
2019-04-26T04:58:12.137Z,90.50
2019-04-26T05:01:10.100Z,91.00
2019-04-26T05:03:48.896Z,91.10
2019-04-26T05:06:44.909Z,91.60
2019-04-26T05:09:23.156Z,90.00
2019-04-26T05:12:04.580Z,90.30
2019-04-26T05:14:58.824Z,90.90
2019-04-26T05:17:56.857Z,91.10
2019-04-26T05:20:31.455Z,91.10
2019-04-26T05:23:22.889Z,90.20
2019-04-26T05:26:25.985Z,90.20
2019-04-26T05:29:09.134Z,90.30
2019-04-26T05:31:52.800Z,90.00
2019-04-26T05:34:35.306Z,89.00
2019-04-26T05:37:22.227Z,87.30
2019-04-26T05:40:33.205Z,84.30
2019-04-26T05:43:31.776Z,84.00
2019-04-26T05:46:35.390Z,84.90
2019-04-26T05:49:45.909Z,84.70
2019-04-26T05:53:16.553Z,83.90
2019-04-26T05:56:28.404Z,84.70
2019-04-26T05:59:10.890Z,85.50
2019-04-26T06:02:19.264Z,85.30
2019-04-26T06:05:10.000Z,86.00
2019-04-26T06:08:03.052Z,86.60
2019-04-26T06:10:41.681Z,85.20
2019-04-26T06:13:48.826Z,87.10
2019-04-26T06:16:44.609Z,85.40
2019-04-26T06:19:25.364Z,83.00
2019-04-26T06:22:25.051Z,83.10
2019-04-26T06:25:20.768Z,84.20
2019-04-26T06:28:23.085Z,83.90
2019-04-26T06:31:12.879Z,82.60
2019-04-26T06:34:09.656Z,84.90
2019-04-26T06:36:55.986Z,83.40
2019-04-26T06:39:46.548Z,84.10
2019-04-26T06:43:02.755Z,83.40
2019-04-26T06:46:31.851Z,82.30
2019-04-26T06:49:27.886Z,84.10
2019-04-26T06:52:03.200Z,83.50
2019-04-26T06:54:43.312Z,83.70
2019-04-26T06:58:01.115Z,80.80
2019-04-26T07:00:46.805Z,79.70
2019-04-26T07:03:32.051Z,79.40
2019-04-26T07:06:05.048Z,80.50
2019-04-26T07:08:57.826Z,80.40
2019-04-26T07:12:07.263Z,81.40
2019-04-26T07:15:03.859Z,79.10
2019-04-26T07:17:58.167Z,77.50
2019-04-26T07:20:40.581Z,78.60
2019-04-26T07:23:26.884Z,77.50
2019-04-26T07:26:28.446Z,77.60
2019-04-26T07:29:29.723Z,76.10
2019-04-26T07:32:07.900Z,77.20
2019-04-26T07:34:53.981Z,76.30
2019-04-26T07:37:51.269Z,76.00
2019-04-26T07:40:58.335Z,76.50
2019-04-26T07:43:58.318Z,75.80
2019-04-26T07:47:01.715Z,75.10
2019-04-26T07:50:07.403Z,73.70
2019-04-26T07:53:04.955Z,74.70
2019-04-26T07:55:47.833Z,73.00
2019-04-26T07:59:29.972Z,70.90
2019-04-26T08:02:25.497Z,70.40
2019-04-26T08:05:03.305Z,71.70
2019-04-26T08:07:39.179Z,71.30
2019-04-26T08:10:15.267Z,68.10
2019-04-26T08:12:50.814Z,70.70
2019-04-26T08:15:33.757Z,67.60
2019-04-26T08:18:11.596Z,69.10
2019-04-26T08:20:56.141Z,69.40
2019-04-26T08:23:41.167Z,66.30
2019-04-26T08:26:07.732Z,64.80
2019-04-26T08:28:40.032Z,64.80
2019-04-26T08:31:15.535Z,66.70
2019-04-26T08:33:51.123Z,62.60
2019-04-26T08:36:27.123Z,62.40
2019-04-26T08:38:55.240Z,64.30
2019-04-26T08:41:25.372Z,61.90
2019-04-26T08:44:14.561Z,59.80
2019-04-26T08:47:06.091Z,59.30
2019-04-26T08:50:01.726Z,61.70
2019-04-26T08:52:35.067Z,62.20
2019-04-26T08:55:07.252Z,61.10
2019-04-26T08:57:41.305Z,59.30
2019-04-26T09:00:26.713Z,59.10
2019-04-26T09:03:14.259Z,59.30
2019-04-26T09:06:03.696Z,59.70
2019-04-26T09:08:39.167Z,58.40
2019-04-26T09:11:09.323Z,60.70
2019-04-26T09:13:42.201Z,58.30
2019-04-26T09:16:20.876Z,58.30
2019-04-26T09:18:54.164Z,58.10
2019-04-26T09:21:34.951Z,56.10
2019-04-26T09:24:26.622Z,57.10
2019-04-26T09:27:00.375Z,54.80
2019-04-26T09:29:51.871Z,54.20
2019-04-26T09:32:27.898Z,52.60
2019-04-26T09:34:56.429Z,54.50
2019-04-26T09:37:26.063Z,56.40
2019-04-26T09:39:55.742Z,55.90
2019-04-26T09:42:39.231Z,54.80
2019-04-26T09:45:29.091Z,55.40
2019-04-26T09:48:02.503Z,54.60
2019-04-26T09:50:44.302Z,53.80
2019-04-26T09:53:13.870Z,54.40
2019-04-26T09:55:43.439Z,53.80
2019-04-26T09:58:13.020Z,54.30
2019-04-26T10:00:44.157Z,53.80
2019-04-26T10:03:14.244Z,53.10
2019-04-26T10:05:43.845Z,53.80
2019-04-26T10:08:14.548Z,52.60
2019-04-26T10:10:44.409Z,54.30
2019-04-26T10:13:33.124Z,53.10
2019-04-26T10:16:07.370Z,53.80
2019-04-26T10:18:37.576Z,52.80
2019-04-26T10:21:07.223Z,53.20
2019-04-26T10:23:36.813Z,54.10
2019-04-26T10:26:06.564Z,56.40
2019-04-26T10:28:37.153Z,55.10
2019-04-26T10:31:06.727Z,52.20
2019-04-26T10:33:36.782Z,52.00
2019-04-26T10:36:07.415Z,53.30
2019-04-26T10:38:37.003Z,52.00
2019-04-26T10:41:07.039Z,49.70
2019-04-26T10:43:36.731Z,50.00
2019-04-26T10:46:07.295Z,51.80
2019-04-26T10:48:36.869Z,51.60
2019-04-26T10:51:07.408Z,50.20
2019-04-26T10:53:53.097Z,50.80
2019-04-26T10:56:50.912Z,53.10
2019-04-26T10:59:27.476Z,51.00
2019-04-26T11:01:57.102Z,51.30
2019-04-26T11:04:26.679Z,50.70
2019-04-26T11:06:58.115Z,51.50
2019-04-26T11:09:27.633Z,49.30
2019-04-26T11:11:57.228Z,51.90
2019-04-26T11:14:26.904Z,51.90
2019-04-26T11:16:56.600Z,50.30
2019-04-26T11:19:26.212Z,51.70
2019-04-26T11:21:56.044Z,52.40
2019-04-26T11:24:25.709Z,50.80
2019-04-26T11:26:55.333Z,51.60
2019-04-26T11:29:28.407Z,50.00
2019-04-26T11:31:58.468Z,50.80
2019-04-26T11:34:27.691Z,50.40
2019-04-26T11:36:57.353Z,50.60
2019-04-26T11:39:28.242Z,49.30
2019-04-26T11:41:58.975Z,50.60
2019-04-26T11:44:28.613Z,50.70
2019-04-26T11:46:59.433Z,50.80
2019-04-26T11:49:29.647Z,52.10
2019-04-26T11:52:02.933Z,51.30
2019-04-26T11:54:30.569Z,51.60
2019-04-26T11:57:00.170Z,54.10
2019-04-26T11:59:31.973Z,49.30
2019-04-26T12:02:01.587Z,50.70
2019-04-26T12:04:55.380Z,49.80
2019-04-26T12:07:27.621Z,50.20
2019-04-26T12:09:58.905Z,50.20
2019-04-26T12:12:28.483Z,50.00
2019-04-26T12:14:59.221Z,49.70
2019-04-26T12:17:31.237Z,50.20
2019-04-26T12:20:00.069Z,49.50
2019-04-26T12:22:29.700Z,51.20
2019-04-26T12:24:59.292Z,51.20
2019-04-26T12:27:30.655Z,51.20
2019-04-26T12:30:00.185Z,48.00
2019-04-26T12:32:29.769Z,48.60
2019-04-26T12:34:59.289Z,47.70
2019-04-26T12:37:29.017Z,47.80
2019-04-26T12:39:58.754Z,49.30
2019-04-26T12:42:28.383Z,49.40
2019-04-26T12:45:16.826Z,48.90
2019-04-26T12:47:49.482Z,50.10
2019-04-26T12:50:19.335Z,51.90
2019-04-26T12:52:51.484Z,50.00
2019-04-26T12:55:20.362Z,50.90
2019-04-26T12:57:51.064Z,50.40
2019-04-26T13:00:26.320Z,50.60
2019-04-26T13:02:56.286Z,49.10
2019-04-26T13:05:26.831Z,48.40
2019-04-26T13:07:56.507Z,47.70
2019-04-26T13:10:54.162Z,47.70
2019-04-26T13:13:45.630Z,47.70
2019-04-26T13:16:33.175Z,47.10
2019-04-26T13:19:02.760Z,46.70
2019-04-26T13:21:33.106Z,46.70
2019-04-26T13:24:04.463Z,44.20
2019-04-26T13:26:36.456Z,45.70
2019-04-26T13:29:06.257Z,45.70
2019-04-26T13:31:35.935Z,45.30
2019-04-26T13:34:05.717Z,44.60
2019-04-26T13:36:35.435Z,46.50
2019-04-26T13:39:09.425Z,47.40
2019-04-26T13:41:40.224Z,47.00
2019-04-26T13:44:11.123Z,47.60
2019-04-26T13:47:03.780Z,47.30
2019-04-26T13:49:38.129Z,48.50
2019-04-26T13:52:07.775Z,48.70
2019-04-26T13:54:37.418Z,49.30
2019-04-26T13:57:10.075Z,51.50
2019-04-26T13:59:38.341Z,50.60
2019-04-26T14:02:11.780Z,49.30
2019-04-26T14:04:42.448Z,48.70
2019-04-26T14:07:12.211Z,49.20
2019-04-26T14:09:41.766Z,46.10
2019-04-26T14:12:18.771Z,47.70
2019-04-26T14:14:42.611Z,47.50
2019-04-26T14:17:12.152Z,45.80
2019-04-26T14:19:45.219Z,45.00
2019-04-26T14:22:14.830Z,44.40
2019-04-26T14:24:53.086Z,43.80
2019-04-26T14:27:25.083Z,42.40
2019-04-26T14:29:55.599Z,43.00
2019-04-26T14:32:25.330Z,43.00
2019-04-26T14:34:55.068Z,43.50
2019-04-26T14:37:24.705Z,43.30
2019-04-26T14:39:55.359Z,43.50
2019-04-26T14:42:33.605Z,42.40
2019-04-26T14:44:57.038Z,42.70
2019-04-26T14:47:30.340Z,42.70
2019-04-26T14:49:59.258Z,42.40
2019-04-26T14:52:29.181Z,42.80
2019-04-26T14:54:58.865Z,44.20
2019-04-26T14:57:31.577Z,45.10
2019-04-26T15:00:00.226Z,45.80
2019-04-26T15:02:48.486Z,44.00
2019-04-26T15:05:26.144Z,45.30
2019-04-26T15:07:55.749Z,44.30
2019-04-26T15:10:43.912Z,43.30
2019-04-26T15:13:17.218Z,42.40
2019-04-26T15:15:37.725Z,44.90
2019-04-26T15:18:07.299Z,44.70
2019-04-26T15:20:37.803Z,44.50
2019-04-26T15:23:07.440Z,46.60
2019-04-26T15:25:37.212Z,46.60
2019-04-26T15:28:10.940Z,47.50
2019-04-26T15:30:43.239Z,47.60
2019-04-26T15:33:12.718Z,47.60
2019-04-26T15:35:42.144Z,48.80
2019-04-26T15:38:11.846Z,47.80
2019-04-26T15:40:54.816Z,49.00
2019-04-26T15:43:28.592Z,48.20
2019-04-26T15:46:29.514Z,47.60
2019-04-26T15:49:17.012Z,48.50
2019-04-26T15:51:46.686Z,49.50
2019-04-26T15:54:17.848Z,48.10
2019-04-26T15:56:49.262Z,47.80
2019-04-26T15:59:22.748Z,45.90
2019-04-26T16:01:50.061Z,45.00
2019-04-26T16:04:19.646Z,45.70
2019-04-26T16:06:49.231Z,46.50
2019-04-26T16:09:19.997Z,47.50
2019-04-26T16:11:50.717Z,46.90
2019-04-26T16:14:20.325Z,48.50
2019-04-26T16:16:49.883Z,47.30
2019-04-26T16:19:19.476Z,47.70
2019-04-26T16:21:52.715Z,47.70
2019-04-26T16:24:20.279Z,48.30
2019-04-26T16:26:53.551Z,48.60
2019-04-26T16:29:37.574Z,48.70
2019-04-26T16:32:21.981Z,48.40
2019-04-26T16:34:52.482Z,48.50
2019-04-26T16:37:23.910Z,47.80
2019-04-26T16:39:53.568Z,48.10
2019-04-26T16:42:23.539Z,48.00
2019-04-26T16:44:55.213Z,48.30
2019-04-26T16:47:25.208Z,48.30
2019-04-26T16:49:54.809Z,49.40
2019-04-26T16:52:24.388Z,50.00
2019-04-26T16:57:26.824Z,52.00
2019-04-26T16:59:59.750Z,52.10
2019-04-26T17:00:33.601Z,50.50
2019-04-26T17:02:28.174Z,52.60
2019-04-26T17:05:03.583Z,53.30
2019-04-26T17:07:29.141Z,53.60
2019-04-26T17:09:59.835Z,55.00
2019-04-26T17:12:29.690Z,55.30
2019-04-26T17:14:59.279Z,55.60
2019-04-26T17:17:28.841Z,56.30
2019-04-26T17:19:58.397Z,56.60
2019-04-26T17:22:44.731Z,56.90
2019-04-26T17:25:26.761Z,57.50
2019-04-26T17:27:54.377Z,58.20
2019-04-26T17:30:25.226Z,58.20
2019-04-26T17:32:55.351Z,58.90
2019-04-26T17:35:25.392Z,59.30
2019-04-26T17:37:57.339Z,59.60
2019-04-26T17:40:30.180Z,60.10
2019-04-26T17:42:57.700Z,60.70
2019-04-26T17:45:27.233Z,61.30
2019-04-26T17:47:56.807Z,61.30
2019-04-26T17:50:26.465Z,61.90
2019-04-26T17:52:56.021Z,61.80
2019-04-26T17:55:25.633Z,62.30
2019-04-26T17:58:09.475Z,62.60
2019-04-26T18:00:28.764Z,63.30
2019-04-26T18:02:57.757Z,63.40
2019-04-26T18:05:41.821Z,63.60
2019-04-26T18:08:01.701Z,64.30
2019-04-26T18:10:30.638Z,64.50
2019-04-26T18:13:00.486Z,64.80
2019-04-26T18:15:30.153Z,65.50
2019-04-26T18:18:18.893Z,65.80
2019-04-26T18:21:12.948Z,65.40
2019-04-26T18:23:44.677Z,66.60
2019-04-26T18:26:17.465Z,67.50
2019-04-26T18:28:51.509Z,67.60
2019-04-26T18:31:21.431Z,68.40
2019-04-26T18:33:48.270Z,69.30
2019-04-26T18:36:17.795Z,69.40
2019-04-26T18:38:48.566Z,69.20
2019-04-26T18:41:23.188Z,69.90
2019-04-26T18:43:54.027Z,70.10
2019-04-26T18:46:27.060Z,70.40
2019-04-26T18:48:56.640Z,70.40
2019-04-26T18:51:26.291Z,71.60
2019-04-26T18:54:09.227Z,71.90
2019-04-26T18:56:41.465Z,70.70
2019-04-26T18:59:11.754Z,72.00
2019-04-26T19:01:42.549Z,72.60
2019-04-26T19:04:14.945Z,72.90
2019-04-26T19:06:43.577Z,73.40
2019-04-26T19:09:15.759Z,73.70
2019-04-26T19:11:48.458Z,73.00
2019-04-26T19:14:29.669Z,73.70
2019-04-26T19:17:13.523Z,73.90
2019-04-26T19:20:08.357Z,73.90
2019-04-26T19:22:38.232Z,74.60
2019-04-26T19:25:19.102Z,75.50
2019-04-26T19:27:49.324Z,75.90
2019-04-26T19:30:12.722Z,76.40
2019-04-26T19:32:42.416Z,76.30
2019-04-26T19:35:14.359Z,75.40
2019-04-26T19:37:43.483Z,75.70
2019-04-26T19:40:13.517Z,76.90
2019-04-26T19:42:43.165Z,76.80
2019-04-26T19:45:19.636Z,76.90
2019-04-26T19:47:54.964Z,77.30
2019-04-26T19:50:31.689Z,77.80
2019-04-26T19:53:05.859Z,77.90
2019-04-26T19:55:54.845Z,78.70
2019-04-26T19:58:25.300Z,79.60
2019-04-26T20:00:55.224Z,79.40
2019-04-26T20:03:24.857Z,79.80
2019-04-26T20:05:54.397Z,79.30
2019-04-26T20:08:23.957Z,80.50
2019-04-26T20:10:53.496Z,80.70
2019-04-26T20:13:23.605Z,80.90
2019-04-26T20:15:57.269Z,81.00
2019-04-26T20:18:24.373Z,81.00
2019-04-26T20:20:53.934Z,81.80
2019-04-26T20:23:23.489Z,81.90
2019-04-26T20:25:53.131Z,81.40
2019-04-26T20:28:22.948Z,81.60
2019-04-26T20:31:08.926Z,81.80
2019-04-26T20:33:38.681Z,81.80
2019-04-26T20:36:08.211Z,81.50
2019-04-26T20:38:45.451Z,82.30
2019-04-26T20:41:09.105Z,82.40
2019-04-26T20:43:44.385Z,82.00
2019-04-26T20:46:14.903Z,82.40
2019-04-26T20:48:42.599Z,82.40
2019-04-26T20:51:12.372Z,83.30
2019-04-26T20:53:43.761Z,83.20
2019-04-26T20:56:18.226Z,83.50
2019-04-26T20:58:47.089Z,83.90
2019-04-26T21:01:16.584Z,84.00
2019-04-26T21:03:46.315Z,84.40
2019-04-26T21:06:16.013Z,84.40
2019-04-26T21:08:45.604Z,84.80
2019-04-26T21:11:15.228Z,84.50
2019-04-26T21:13:44.805Z,85.20
2019-04-26T21:16:15.550Z,85.20
2019-04-26T21:18:45.236Z,85.70
2019-04-26T21:21:16.191Z,85.40
2019-04-26T21:23:48.154Z,85.50
2019-04-26T21:26:36.893Z,85.70
2019-04-26T21:29:20.357Z,85.40
2019-04-26T21:32:01.784Z,86.80
2019-04-26T21:34:34.749Z,86.80
2019-04-26T21:37:17.287Z,87.30
2019-04-26T21:39:53.262Z,86.60
2019-04-26T21:42:25.589Z,86.40
2019-04-26T21:44:54.900Z,87.60
2019-04-26T21:47:27.566Z,86.60
2019-04-26T21:49:58.798Z,87.30
2019-04-26T21:52:29.234Z,87.10
2019-04-26T21:54:58.450Z,87.10
2019-04-26T21:57:28.403Z,87.50
2019-04-26T21:59:58.024Z,88.60
2019-04-26T22:02:29.546Z,88.50
2019-04-26T22:04:58.945Z,89.30
2019-04-26T22:07:28.493Z,90.10
2019-04-26T22:10:20.580Z,90.00
2019-04-26T22:12:50.134Z,90.00
2019-04-26T22:15:38.875Z,90.50
2019-04-26T22:18:14.851Z,90.70
2019-04-26T22:20:52.232Z,90.70
2019-04-26T22:23:27.872Z,90.70
2019-04-26T22:26:00.155Z,90.90
2019-04-26T22:28:31.286Z,91.00
2019-04-26T22:31:06.872Z,91.10
2019-04-26T22:33:34.439Z,92.40
2019-04-26T22:36:05.476Z,94.20
2019-04-26T22:38:35.011Z,94.60
2019-04-26T22:41:04.624Z,96.10
2019-04-26T22:43:54.018Z,96.20
2019-04-26T22:46:49.553Z,97.20
2019-04-26T22:49:20.269Z,97.20
2019-04-26T22:51:49.875Z,97.10
2019-04-26T22:54:19.477Z,98.70
2019-04-26T22:56:51.088Z,98.70
2019-04-26T22:59:20.709Z,99.10
2019-04-26T23:01:50.367Z,99.80
2019-04-26T23:04:23.549Z,99.90
2019-04-26T23:06:56.210Z,99.90
2019-04-26T23:09:23.922Z,99.90
2019-04-26T23:11:59.841Z,99.90
2019-04-26T23:14:48.279Z,99.90
2019-04-26T23:17:35.036Z,99.90
2019-04-26T23:20:29.157Z,99.90
2019-04-26T23:23:00.548Z,99.90
2019-04-26T23:25:50.661Z,99.90
2019-04-26T23:28:20.237Z,99.90
2019-04-26T23:30:49.775Z,99.90
2019-04-26T23:33:23.848Z,99.90
2019-04-26T23:35:53.570Z,99.90
2019-04-26T23:38:23.540Z,99.90
2019-04-26T23:40:53.299Z,99.90
2019-04-26T23:43:25.510Z,99.90
2019-04-26T23:45:54.170Z,99.90
2019-04-26T23:48:23.716Z,99.90
2019-04-26T23:50:53.856Z,99.90
2019-04-26T23:53:24.795Z,99.90
2019-04-26T23:55:54.455Z,99.90
2019-04-26T23:58:24.032Z,99.90
